sensor_id;sensor_type;location;lat;lon;timestamp;pressure;altitude;pressure_sealevel;temperature;humidity
26376;BME280;30544;42.196;24.336;2024-02-23T00:00:13;99090.63;;;7.74;65.28
26376;BME280;30544;42.196;24.336;2024-02-23T00:02:43;99089.78;;;7.74;65.58
26376;BME280;30544;42.196;24.336;2024-02-23T00:05:09;99088.47;;;7.76;65.43
26376;BME280;30544;42.196;24.336;2024-02-23T00:07:36;99081.25;;;7.75;65.39
26376;BME280;30544;42.196;24.336;2024-02-23T00:10:02;99082.09;;;7.76;65.80
26376;BME280;30544;42.196;24.336;2024-02-23T00:12:29;99074.91;;;7.75;65.86
26376;BME280;30544;42.196;24.336;2024-02-23T00:14:57;99074.28;;;7.73;65.27
26376;BME280;30544;42.196;24.336;2024-02-23T00:17:23;99074.28;;;7.73;65.51
26376;BME280;30544;42.196;24.336;2024-02-23T00:19:50;99092.25;;;7.64;65.66
26376;BME280;30544;42.196;24.336;2024-02-23T00:22:17;99079.75;;;7.61;65.42
26376;BME280;30544;42.196;24.336;2024-02-23T00:24:44;99073.22;;;7.55;65.77
26376;BME280;30544;42.196;24.336;2024-02-23T00:27:10;99072.22;;;7.50;66.22
26376;BME280;30544;42.196;24.336;2024-02-23T00:29:37;99080.13;;;7.46;65.82
26376;BME280;30544;42.196;24.336;2024-02-23T00:32:05;99067.66;;;7.44;65.92
26376;BME280;30544;42.196;24.336;2024-02-23T00:34:32;99063.88;;;7.38;66.00
26376;BME280;30544;42.196;24.336;2024-02-23T00:36:58;99062.44;;;7.36;65.88
26376;BME280;30544;42.196;24.336;2024-02-23T00:39:25;99060.38;;;7.31;65.71
26376;BME280;30544;42.196;24.336;2024-02-23T00:41:51;99057.09;;;7.22;66.69
26376;BME280;30544;42.196;24.336;2024-02-23T00:44:18;99053.09;;;7.18;66.38
26376;BME280;30544;42.196;24.336;2024-02-23T00:46:44;99058.84;;;7.17;66.62
26376;BME280;30544;42.196;24.336;2024-02-23T00:49:12;99059.28;;;7.14;66.33
26376;BME280;30544;42.196;24.336;2024-02-23T00:51:39;99064.44;;;7.10;66.23
26376;BME280;30544;42.196;24.336;2024-02-23T00:54:05;99053.03;;;7.07;67.04
26376;BME280;30544;42.196;24.336;2024-02-23T00:56:33;99050.47;;;7.05;67.58
26376;BME280;30544;42.196;24.336;2024-02-23T00:58:59;99047.56;;;7.00;67.71
26376;BME280;30544;42.196;24.336;2024-02-23T01:01:26;99049.25;;;7.01;67.92
26376;BME280;30544;42.196;24.336;2024-02-23T01:03:54;99045.66;;;7.01;67.75
26376;BME280;30544;42.196;24.336;2024-02-23T01:06:22;99047.19;;;6.97;67.99
26376;BME280;30544;42.196;24.336;2024-02-23T01:08:48;99041.44;;;6.98;68.10
26376;BME280;30544;42.196;24.336;2024-02-23T01:11:15;99039.59;;;6.92;68.53
26376;BME280;30544;42.196;24.336;2024-02-23T01:13:41;99037.09;;;6.90;68.96
26376;BME280;30544;42.196;24.336;2024-02-23T01:16:08;99044.44;;;6.97;68.44
26376;BME280;30544;42.196;24.336;2024-02-23T01:18:34;99035.31;;;6.96;68.34
26376;BME280;30544;42.196;24.336;2024-02-23T01:21:01;99036.25;;;6.90;68.46
26376;BME280;30544;42.196;24.336;2024-02-23T01:23:29;99031.38;;;6.85;68.50
26376;BME280;30544;42.196;24.336;2024-02-23T01:25:55;99028.88;;;6.84;68.38
26376;BME280;30544;42.196;24.336;2024-02-23T01:28:23;99027.88;;;6.78;68.27
26376;BME280;30544;42.196;24.336;2024-02-23T01:30:50;99027.31;;;6.70;68.99
26376;BME280;30544;42.196;24.336;2024-02-23T01:33:16;99022.63;;;6.70;69.32
26376;BME280;30544;42.196;24.336;2024-02-23T01:35:43;99021.19;;;6.68;69.53
26376;BME280;30544;42.196;24.336;2024-02-23T01:38:09;99021.03;;;6.62;69.50
26376;BME280;30544;42.196;24.336;2024-02-23T01:40:38;99019.97;;;6.63;69.51
26376;BME280;30544;42.196;24.336;2024-02-23T01:43:04;99012.38;;;6.59;69.48
26376;BME280;30544;42.196;24.336;2024-02-23T01:45:31;99009.00;;;6.57;69.55
26376;BME280;30544;42.196;24.336;2024-02-23T01:47:58;99009.44;;;6.54;69.66
26376;BME280;30544;42.196;24.336;2024-02-23T01:50:24;99020.09;;;6.50;69.63
26376;BME280;30544;42.196;24.336;2024-02-23T01:52:51;99021.38;;;6.48;69.80
26376;BME280;30544;42.196;24.336;2024-02-23T01:55:18;99025.81;;;6.49;69.91
26376;BME280;30544;42.196;24.336;2024-02-23T01:57:46;99018.00;;;6.46;69.59
26376;BME280;30544;42.196;24.336;2024-02-23T02:00:14;99025.06;;;6.42;69.68
26376;BME280;30544;42.196;24.336;2024-02-23T02:02:41;99022.28;;;6.42;69.88
26376;BME280;30544;42.196;24.336;2024-02-23T02:05:09;99030.78;;;6.40;70.05
26376;BME280;30544;42.196;24.336;2024-02-23T02:07:35;99028.19;;;6.45;69.71
26376;BME280;30544;42.196;24.336;2024-02-23T02:10:02;99019.69;;;6.47;69.85
26376;BME280;30544;42.196;24.336;2024-02-23T02:12:30;99016.56;;;6.43;69.75
26376;BME280;30544;42.196;24.336;2024-02-23T02:14:58;99021.22;;;6.43;69.60
26376;BME280;30544;42.196;24.336;2024-02-23T02:17:26;99025.69;;;6.37;69.66
26376;BME280;30544;42.196;24.336;2024-02-23T02:19:53;99022.56;;;6.33;69.61
26376;BME280;30544;42.196;24.336;2024-02-23T02:22:19;99016.66;;;6.30;69.65
26376;BME280;30544;42.196;24.336;2024-02-23T02:24:46;99018.59;;;6.29;69.87
26376;BME280;30544;42.196;24.336;2024-02-23T02:27:13;99026.63;;;6.31;69.76
26376;BME280;30544;42.196;24.336;2024-02-23T02:29:39;99027.09;;;6.21;70.18
26376;BME280;30544;42.196;24.336;2024-02-23T02:32:07;99020.09;;;6.25;70.03
26376;BME280;30544;42.196;24.336;2024-02-23T02:34:34;99026.00;;;6.29;69.82
26376;BME280;30544;42.196;24.336;2024-02-23T02:37:01;99015.66;;;6.24;69.98
26376;BME280;30544;42.196;24.336;2024-02-23T02:39:27;99021.22;;;6.18;70.02
26376;BME280;30544;42.196;24.336;2024-02-23T02:41:54;99018.06;;;6.14;70.04
26376;BME280;30544;42.196;24.336;2024-02-23T02:44:21;99008.13;;;6.13;70.28
26376;BME280;30544;42.196;24.336;2024-02-23T02:46:47;99014.00;;;6.17;70.32
26376;BME280;30544;42.196;24.336;2024-02-23T02:49:16;99011.88;;;6.19;69.75
26376;BME280;30544;42.196;24.336;2024-02-23T02:51:42;99002.16;;;6.16;69.67
26376;BME280;30544;42.196;24.336;2024-02-23T02:54:10;99022.50;;;6.15;69.97
26376;BME280;30544;42.196;24.336;2024-02-23T02:56:41;99020.22;;;6.12;70.04
26376;BME280;30544;42.196;24.336;2024-02-23T02:59:07;99029.78;;;6.03;70.01
26376;BME280;30544;42.196;24.336;2024-02-23T03:01:35;99020.44;;;6.11;69.57
26376;BME280;30544;42.196;24.336;2024-02-23T03:04:01;99021.03;;;6.13;69.69
26376;BME280;30544;42.196;24.336;2024-02-23T03:06:29;99021.13;;;6.06;70.03
26376;BME280;30544;42.196;24.336;2024-02-23T03:08:56;99034.59;;;6.14;69.80
26376;BME280;30544;42.196;24.336;2024-02-23T03:11:22;99028.72;;;6.04;69.96
26376;BME280;30544;42.196;24.336;2024-02-23T03:13:49;99035.31;;;6.03;69.89
26376;BME280;30544;42.196;24.336;2024-02-23T03:16:16;99030.22;;;6.07;69.81
26376;BME280;30544;42.196;24.336;2024-02-23T03:18:42;99029.53;;;6.11;69.75
26376;BME280;30544;42.196;24.336;2024-02-23T03:21:09;99031.69;;;6.09;69.73
26376;BME280;30544;42.196;24.336;2024-02-23T03:23:37;99028.09;;;6.02;69.40
26376;BME280;30544;42.196;24.336;2024-02-23T03:26:03;99039.13;;;6.02;69.58
26376;BME280;30544;42.196;24.336;2024-02-23T03:28:30;99047.22;;;5.97;69.66
26376;BME280;30544;42.196;24.336;2024-02-23T03:30:57;99052.31;;;5.93;69.36
26376;BME280;30544;42.196;24.336;2024-02-23T03:33:23;99051.69;;;5.85;69.68
26376;BME280;30544;42.196;24.336;2024-02-23T03:35:50;99055.81;;;5.69;70.22
26376;BME280;30544;42.196;24.336;2024-02-23T03:38:16;99054.34;;;5.66;70.40
26376;BME280;30544;42.196;24.336;2024-02-23T03:40:45;99056.44;;;5.71;70.29
26376;BME280;30544;42.196;24.336;2024-02-23T03:43:11;99048.63;;;5.68;69.86
26376;BME280;30544;42.196;24.336;2024-02-23T03:45:38;99029.59;;;5.66;69.86
26376;BME280;30544;42.196;24.336;2024-02-23T03:48:05;99043.78;;;5.63;70.51
26376;BME280;30544;42.196;24.336;2024-02-23T03:50:31;99043.00;;;5.56;70.78
26376;BME280;30544;42.196;24.336;2024-02-23T03:52:58;99033.06;;;5.55;70.52
26376;BME280;30544;42.196;24.336;2024-02-23T03:55:24;99033.69;;;5.51;70.68
26376;BME280;30544;42.196;24.336;2024-02-23T03:57:52;99025.88;;;5.48;70.76
26376;BME280;30544;42.196;24.336;2024-02-23T04:00:19;99025.09;;;5.40;70.48
26376;BME280;30544;42.196;24.336;2024-02-23T04:02:48;99028.91;;;5.39;70.95
26376;BME280;30544;42.196;24.336;2024-02-23T04:05:14;99032.06;;;5.36;70.72
26376;BME280;30544;42.196;24.336;2024-02-23T04:07:41;99034.41;;;5.33;71.54
26376;BME280;30544;42.196;24.336;2024-02-23T04:10:08;99044.16;;;5.29;71.18
26376;BME280;30544;42.196;24.336;2024-02-23T04:12:34;99037.66;;;5.23;71.12
26376;BME280;30544;42.196;24.336;2024-02-23T04:15:02;99036.59;;;5.18;71.99
26376;BME280;30544;42.196;24.336;2024-02-23T04:17:29;99040.00;;;5.13;72.14
26376;BME280;30544;42.196;24.336;2024-02-23T04:19:55;99040.44;;;5.10;72.03
26376;BME280;30544;42.196;24.336;2024-02-23T04:22:22;99047.66;;;5.04;71.94
26376;BME280;30544;42.196;24.336;2024-02-23T04:24:48;99042.56;;;5.01;72.57
26376;BME280;30544;42.196;24.336;2024-02-23T04:27:15;99043.44;;;4.95;72.83
26376;BME280;30544;42.196;24.336;2024-02-23T04:29:41;99052.75;;;4.94;73.55
26376;BME280;30544;42.196;24.336;2024-02-23T04:32:09;99048.31;;;4.93;73.99
26376;BME280;30544;42.196;24.336;2024-02-23T04:34:36;99039.44;;;4.91;73.96
26376;BME280;30544;42.196;24.336;2024-02-23T04:37:02;99039.44;;;4.91;73.80
26376;BME280;30544;42.196;24.336;2024-02-23T04:39:29;99043.47;;;4.89;74.50
26376;BME280;30544;42.196;24.336;2024-02-23T04:41:55;99049.38;;;4.86;74.47
26376;BME280;30544;42.196;24.336;2024-02-23T04:44:22;99045.16;;;4.83;74.69
26376;BME280;30544;42.196;24.336;2024-02-23T04:46:48;99048.53;;;4.85;74.81
26376;BME280;30544;42.196;24.336;2024-02-23T04:49:16;99039.69;;;4.76;74.67
26376;BME280;30544;42.196;24.336;2024-02-23T04:51:43;99034.19;;;4.76;75.09
26376;BME280;30544;42.196;24.336;2024-02-23T04:54:10;99039.25;;;4.79;75.97
26376;BME280;30544;42.196;24.336;2024-02-23T04:56:36;99047.28;;;4.81;75.63
26376;BME280;30544;42.196;24.336;2024-02-23T04:59:03;99051.53;;;4.77;76.10
26376;BME280;30544;42.196;24.336;2024-02-23T05:01:34;99053.44;;;4.63;76.95
26376;BME280;30544;42.196;24.336;2024-02-23T05:04:01;99070.56;;;4.72;76.45
26376;BME280;30544;42.196;24.336;2024-02-23T05:06:29;99058.72;;;4.71;75.73
26376;BME280;30544;42.196;24.336;2024-02-23T05:08:56;99064.63;;;4.68;76.37
26376;BME280;30544;42.196;24.336;2024-02-23T05:11:22;99052.81;;;4.61;75.76
26376;BME280;30544;42.196;24.336;2024-02-23T05:13:49;99050.50;;;4.58;76.63
26376;BME280;30544;42.196;24.336;2024-02-23T05:16:16;99048.16;;;4.62;75.81
26376;BME280;30544;42.196;24.336;2024-02-23T05:18:42;99059.16;;;4.62;75.85
26376;BME280;30544;42.196;24.336;2024-02-23T05:21:11;99055.34;;;4.63;76.38
26376;BME280;30544;42.196;24.336;2024-02-23T05:23:39;99064.66;;;4.55;76.60
26376;BME280;30544;42.196;24.336;2024-02-23T05:26:06;99070.56;;;4.59;76.94
26376;BME280;30544;42.196;24.336;2024-02-23T05:28:32;99085.78;;;4.61;76.38
26376;BME280;30544;42.196;24.336;2024-02-23T05:30:59;99076.25;;;4.64;75.78
26376;BME280;30544;42.196;24.336;2024-02-23T05:33:25;99076.69;;;4.67;75.71
26376;BME280;30544;42.196;24.336;2024-02-23T05:35:52;99078.81;;;4.72;76.37
26376;BME280;30544;42.196;24.336;2024-02-23T05:38:18;99088.13;;;4.71;76.19
26376;BME280;30544;42.196;24.336;2024-02-23T05:40:46;99091.69;;;4.71;76.39
26376;BME280;30544;42.196;24.336;2024-02-23T05:43:13;99105.22;;;4.73;75.67
26376;BME280;30544;42.196;24.336;2024-02-23T05:45:40;99100.34;;;4.75;75.54
26376;BME280;30544;42.196;24.336;2024-02-23T05:48:07;99106.91;;;4.80;76.08
26376;BME280;30544;42.196;24.336;2024-02-23T05:50:33;99099.72;;;4.79;75.16
26376;BME280;30544;42.196;24.336;2024-02-23T05:53:00;99096.31;;;4.84;75.30
26376;BME280;30544;42.196;24.336;2024-02-23T05:55:26;99094.19;;;4.86;75.23
26376;BME280;30544;42.196;24.336;2024-02-23T05:57:54;99098.44;;;4.89;75.06
26376;BME280;30544;42.196;24.336;2024-02-23T06:00:21;99100.97;;;4.90;75.70
26376;BME280;30544;42.196;24.336;2024-02-23T06:02:47;99099.22;;;5.02;75.54
26376;BME280;30544;42.196;24.336;2024-02-23T06:05:14;99100.28;;;5.01;75.63
26376;BME280;30544;42.196;24.336;2024-02-23T06:07:41;99098.38;;;5.08;75.26
26376;BME280;30544;42.196;24.336;2024-02-23T06:10:07;99099.84;;;5.18;74.96
26376;BME280;30544;42.196;24.336;2024-02-23T06:12:34;99094.56;;;5.23;74.61
26376;BME280;30544;42.196;24.336;2024-02-23T06:15:02;99095.81;;;5.27;74.61
26376;BME280;30544;42.196;24.336;2024-02-23T06:17:28;99093.41;;;5.37;74.52
26376;BME280;30544;42.196;24.336;2024-02-23T06:19:55;99101.63;;;5.50;74.56
26376;BME280;30544;42.196;24.336;2024-02-23T06:22:24;99106.69;;;5.60;74.33
26376;BME280;30544;42.196;24.336;2024-02-23T06:24:50;99103.47;;;5.63;74.14
26376;BME280;30544;42.196;24.336;2024-02-23T06:27:17;99105.78;;;5.72;73.76
26376;BME280;30544;42.196;24.336;2024-02-23T06:29:43;99105.50;;;5.81;73.52
26376;BME280;30544;42.196;24.336;2024-02-23T06:32:11;99107.16;;;5.95;73.39
26376;BME280;30544;42.196;24.336;2024-02-23T06:34:38;99108.56;;;6.04;73.47
26376;BME280;30544;42.196;24.336;2024-02-23T06:37:04;99111.47;;;6.16;72.93
26376;BME280;30544;42.196;24.336;2024-02-23T06:39:31;99113.53;;;6.27;72.80
26376;BME280;30544;42.196;24.336;2024-02-23T06:41:58;99103.75;;;6.31;72.28
26376;BME280;30544;42.196;24.336;2024-02-23T06:44:25;99102.81;;;6.44;72.06
26376;BME280;30544;42.196;24.336;2024-02-23T06:46:52;99099.13;;;6.56;71.51
26376;BME280;30544;42.196;24.336;2024-02-23T06:49:20;99096.91;;;6.65;71.45
26376;BME280;30544;42.196;24.336;2024-02-23T06:51:47;99100.63;;;6.77;70.85
26376;BME280;30544;42.196;24.336;2024-02-23T06:54:14;99101.56;;;6.89;70.52
26376;BME280;30544;42.196;24.336;2024-02-23T06:56:41;99102.34;;;6.97;70.16
26376;BME280;30544;42.196;24.336;2024-02-23T06:59:07;99098.38;;;7.11;69.48
26376;BME280;30544;42.196;24.336;2024-02-23T07:01:34;99117.59;;;7.17;68.99
26376;BME280;30544;42.196;24.336;2024-02-23T07:04:02;99112.41;;;7.28;68.75
26376;BME280;30544;42.196;24.336;2024-02-23T07:06:30;99107.00;;;7.39;68.15
26376;BME280;30544;42.196;24.336;2024-02-23T07:08:57;99106.81;;;7.52;68.38
26376;BME280;30544;42.196;24.336;2024-02-23T07:11:23;99103.97;;;7.59;67.61
26376;BME280;30544;42.196;24.336;2024-02-23T07:13:50;99113.47;;;7.63;67.40
26376;BME280;30544;42.196;24.336;2024-02-23T07:16:17;99098.50;;;7.71;67.34
26376;BME280;30544;42.196;24.336;2024-02-23T07:18:43;99110.22;;;7.84;67.53
26376;BME280;30544;42.196;24.336;2024-02-23T07:21:10;99116.03;;;7.95;67.44
26376;BME280;30544;42.196;24.336;2024-02-23T07:23:38;99105.84;;;7.95;67.33
26376;BME280;30544;42.196;24.336;2024-02-23T07:26:03;99107.94;;;8.11;67.24
26376;BME280;30544;42.196;24.336;2024-02-23T07:28:30;99103.22;;;8.30;66.72
26376;BME280;30544;42.196;24.336;2024-02-23T07:30:57;99098.34;;;8.44;66.13
26376;BME280;30544;42.196;24.336;2024-02-23T07:33:24;99103.69;;;8.57;65.71
26376;BME280;30544;42.196;24.336;2024-02-23T07:35:50;99096.94;;;8.65;65.81
26376;BME280;30544;42.196;24.336;2024-02-23T07:38:17;99089.75;;;8.76;64.89
26376;BME280;30544;42.196;24.336;2024-02-23T07:40:46;99084.81;;;8.89;65.09
26376;BME280;30544;42.196;24.336;2024-02-23T07:43:12;99094.19;;;9.00;64.71
26376;BME280;30544;42.196;24.336;2024-02-23T07:45:39;99091.09;;;9.08;64.35
26376;BME280;30544;42.196;24.336;2024-02-23T07:48:06;99078.91;;;9.32;63.92
26376;BME280;30544;42.196;24.336;2024-02-23T07:50:33;99082.50;;;9.45;63.09
26376;BME280;30544;42.196;24.336;2024-02-23T07:53:00;99082.09;;;9.64;63.14
26376;BME280;30544;42.196;24.336;2024-02-23T07:55:26;99089.28;;;9.77;61.90
26376;BME280;30544;42.196;24.336;2024-02-23T07:57:54;99083.34;;;9.85;61.94
26376;BME280;30544;42.196;24.336;2024-02-23T08:00:26;99080.38;;;10.04;61.79
26376;BME280;30544;42.196;24.336;2024-02-23T08:02:52;99076.72;;;10.15;60.91
26376;BME280;30544;42.196;24.336;2024-02-23T08:05:21;99083.41;;;10.31;61.03
26376;BME280;30544;42.196;24.336;2024-02-23T08:07:48;99079.50;;;10.43;60.25
26376;BME280;30544;42.196;24.336;2024-02-23T08:10:14;99071.66;;;10.57;60.09
26376;BME280;30544;42.196;24.336;2024-02-23T08:12:41;99070.75;;;10.68;59.87
26376;BME280;30544;42.196;24.336;2024-02-23T08:15:09;99060.16;;;10.82;58.33
26376;BME280;30544;42.196;24.336;2024-02-23T08:17:36;99060.81;;;10.89;58.57
26376;BME280;30544;42.196;24.336;2024-02-23T08:20:02;99062.09;;;10.98;57.93
26376;BME280;30544;42.196;24.336;2024-02-23T08:22:30;99060.53;;;11.07;57.20
26376;BME280;30544;42.196;24.336;2024-02-23T08:24:56;99066.00;;;11.19;57.60
26376;BME280;30544;42.196;24.336;2024-02-23T08:27:23;99060.09;;;11.32;57.47
26376;BME280;30544;42.196;24.336;2024-02-23T08:29:49;99046.94;;;11.44;57.43
26376;BME280;30544;42.196;24.336;2024-02-23T08:32:17;99049.25;;;11.53;56.70
26376;BME280;30544;42.196;24.336;2024-02-23T08:34:44;99051.25;;;11.57;56.89
26376;BME280;30544;42.196;24.336;2024-02-23T08:37:10;99051.69;;;11.71;56.25
26376;BME280;30544;42.196;24.336;2024-02-23T08:39:37;99043.25;;;11.83;55.92
26376;BME280;30544;42.196;24.336;2024-02-23T08:42:04;99047.91;;;11.99;56.23
26376;BME280;30544;42.196;24.336;2024-02-23T08:44:30;99048.31;;;12.13;55.33
26376;BME280;30544;42.196;24.336;2024-02-23T08:46:57;99052.09;;;12.28;55.45
26376;BME280;30544;42.196;24.336;2024-02-23T08:49:25;99050.50;;;12.38;54.89
26376;BME280;30544;42.196;24.336;2024-02-23T08:51:51;99046.47;;;12.50;54.31
26376;BME280;30544;42.196;24.336;2024-02-23T08:54:18;99038.25;;;12.65;54.46
26376;BME280;30544;42.196;24.336;2024-02-23T08:56:44;99037.25;;;12.77;53.83
26376;BME280;30544;42.196;24.336;2024-02-23T08:59:11;99033.09;;;12.84;52.95
26376;BME280;30544;42.196;24.336;2024-02-23T09:01:37;99028.34;;;12.80;53.70
26376;BME280;30544;42.196;24.336;2024-02-23T09:04:04;99032.19;;;12.74;53.82
26376;BME280;30544;42.196;24.336;2024-02-23T09:06:32;99032.19;;;12.74;53.39
26376;BME280;30544;42.196;24.336;2024-02-23T09:08:59;99031.19;;;12.90;53.40
26376;BME280;30544;42.196;24.336;2024-02-23T09:11:25;99026.53;;;13.01;53.28
26376;BME280;30544;42.196;24.336;2024-02-23T09:13:52;99027.25;;;13.18;53.35
26376;BME280;30544;42.196;24.336;2024-02-23T09:16:18;99016.47;;;13.32;53.34
26376;BME280;30544;42.196;24.336;2024-02-23T09:18:47;99021.78;;;13.38;53.21
26376;BME280;30544;42.196;24.336;2024-02-23T09:21:14;99020.66;;;13.34;53.13
26376;BME280;30544;42.196;24.336;2024-02-23T09:23:42;99013.91;;;13.25;53.66
26376;BME280;30544;42.196;24.336;2024-02-23T09:26:08;99013.16;;;13.40;53.12
26376;BME280;30544;42.196;24.336;2024-02-23T09:28:35;99017.41;;;13.52;53.00
26376;BME280;30544;42.196;24.336;2024-02-23T09:31:01;99005.13;;;13.53;52.50
26376;BME280;30544;42.196;24.336;2024-02-23T09:33:29;99012.09;;;13.51;53.07
26376;BME280;30544;42.196;24.336;2024-02-23T09:35:56;99013.81;;;13.62;53.12
26376;BME280;30544;42.196;24.336;2024-02-23T09:38:23;99017.47;;;13.73;52.96
26376;BME280;30544;42.196;24.336;2024-02-23T09:40:51;99000.50;;;13.79;52.20
26376;BME280;30544;42.196;24.336;2024-02-23T09:43:18;98999.06;;;13.67;51.82
26376;BME280;30544;42.196;24.336;2024-02-23T09:45:47;98999.63;;;13.69;51.41
26376;BME280;30544;42.196;24.336;2024-02-23T09:48:13;99001.63;;;13.89;51.51
26376;BME280;30544;42.196;24.336;2024-02-23T09:50:40;99002.50;;;13.94;51.18
26376;BME280;30544;42.196;24.336;2024-02-23T09:53:08;98987.72;;;13.99;50.53
26376;BME280;30544;42.196;24.336;2024-02-23T09:55:36;98990.56;;;14.14;50.55
26376;BME280;30544;42.196;24.336;2024-02-23T09:58:04;98994.97;;;14.10;50.89
26376;BME280;30544;42.196;24.336;2024-02-23T10:00:30;98992.50;;;14.19;50.59
26376;BME280;30544;42.196;24.336;2024-02-23T10:02:57;98988.06;;;14.33;49.87
26376;BME280;30544;42.196;24.336;2024-02-23T10:05:27;98978.28;;;14.40;50.17
26376;BME280;30544;42.196;24.336;2024-02-23T10:07:55;98976.38;;;14.51;50.18
26376;BME280;30544;42.196;24.336;2024-02-23T10:10:24;98973.28;;;14.58;50.09
26376;BME280;30544;42.196;24.336;2024-02-23T10:12:51;98980.28;;;14.70;50.16
26376;BME280;30544;42.196;24.336;2024-02-23T10:15:19;98981.41;;;14.80;50.63
26376;BME280;30544;42.196;24.336;2024-02-23T10:17:46;98968.81;;;14.87;50.25
26376;BME280;30544;42.196;24.336;2024-02-23T10:20:13;98972.72;;;14.96;49.55
26376;BME280;30544;42.196;24.336;2024-02-23T10:22:40;98970.75;;;14.97;49.18
26376;BME280;30544;42.196;24.336;2024-02-23T10:25:07;98974.63;;;15.06;49.54
26376;BME280;30544;42.196;24.336;2024-02-23T10:27:34;98968.47;;;15.09;48.97
26376;BME280;30544;42.196;24.336;2024-02-23T10:30:00;98962.06;;;15.09;49.16
26376;BME280;30544;42.196;24.336;2024-02-23T10:32:29;98955.06;;;15.16;49.26
26376;BME280;30544;42.196;24.336;2024-02-23T10:34:58;98950.03;;;15.08;49.01
26376;BME280;30544;42.196;24.336;2024-02-23T10:37:26;98952.00;;;15.13;49.50
26376;BME280;30544;42.196;24.336;2024-02-23T10:39:54;98950.03;;;15.18;48.86
26376;BME280;30544;42.196;24.336;2024-02-23T10:42:23;98939.38;;;15.25;49.04
26376;BME280;30544;42.196;24.336;2024-02-23T10:44:50;98943.28;;;15.29;48.87
26376;BME280;30544;42.196;24.336;2024-02-23T10:47:17;98944.09;;;15.35;48.75
26376;BME280;30544;42.196;24.336;2024-02-23T10:49:46;98947.16;;;15.39;48.05
26376;BME280;30544;42.196;24.336;2024-02-23T10:52:12;98941.00;;;15.47;47.94
26376;BME280;30544;42.196;24.336;2024-02-23T10:54:40;98936.44;;;15.56;48.19
26376;BME280;30544;42.196;24.336;2024-02-23T10:57:07;98924.97;;;15.68;48.46
26376;BME280;30544;42.196;24.336;2024-02-23T10:59:34;98921.00;;;15.74;47.35
26376;BME280;30544;42.196;24.336;2024-02-23T11:02:00;98920.72;;;15.80;47.35
26376;BME280;30544;42.196;24.336;2024-02-23T11:04:27;98913.44;;;15.79;47.27
26376;BME280;30544;42.196;24.336;2024-02-23T11:06:56;98922.09;;;15.78;46.81
26376;BME280;30544;42.196;24.336;2024-02-23T11:09:23;98925.13;;;15.86;46.84
26376;BME280;30544;42.196;24.336;2024-02-23T11:11:52;98923.97;;;15.92;46.51
26376;BME280;30544;42.196;24.336;2024-02-23T11:14:28;98924.81;;;15.93;45.81
26376;BME280;30544;42.196;24.336;2024-02-23T11:16:55;98905.75;;;15.95;46.18
26376;BME280;30544;42.196;24.336;2024-02-23T11:19:21;98903.06;;;15.85;45.94
26376;BME280;30544;42.196;24.336;2024-02-23T11:21:59;98903.25;;;15.93;46.10
26376;BME280;30544;42.196;24.336;2024-02-23T11:24:28;98902.13;;;16.00;45.70
26376;BME280;30544;42.196;24.336;2024-02-23T11:26:58;98891.72;;;16.05;46.38
26376;BME280;30544;42.196;24.336;2024-02-23T11:29:26;98899.03;;;16.01;46.31
26376;BME280;30544;42.196;24.336;2024-02-23T11:31:53;98896.22;;;16.01;46.38
26376;BME280;30544;42.196;24.336;2024-02-23T11:34:22;98883.28;;;16.10;45.62
26376;BME280;30544;42.196;24.336;2024-02-23T11:36:50;98881.16;;;15.97;46.03
26376;BME280;30544;42.196;24.336;2024-02-23T11:39:18;98875.72;;;16.11;46.23
26376;BME280;30544;42.196;24.336;2024-02-23T11:41:45;98871.19;;;16.20;45.70
26376;BME280;30544;42.196;24.336;2024-02-23T11:44:14;98865.22;;;16.32;45.87
26376;BME280;30544;42.196;24.336;2024-02-23T11:46:42;98861.47;;;16.41;45.14
26376;BME280;30544;42.196;24.336;2024-02-23T11:49:10;98860.31;;;16.47;44.59
26376;BME280;30544;42.196;24.336;2024-02-23T11:51:36;98858.28;;;16.53;44.88
26376;BME280;30544;42.196;24.336;2024-02-23T11:54:03;98861.97;;;16.48;44.31
26376;BME280;30544;42.196;24.336;2024-02-23T11:56:31;98854.88;;;16.56;44.62
26376;BME280;30544;42.196;24.336;2024-02-23T11:58:57;98861.78;;;16.69;44.19
26376;BME280;30544;42.196;24.336;2024-02-23T12:01:24;98856.13;;;16.74;44.31
26376;BME280;30544;42.196;24.336;2024-02-23T12:03:50;98852.19;;;16.75;44.44
26376;BME280;30544;42.196;24.336;2024-02-23T12:06:17;98852.44;;;16.78;43.97
26376;BME280;30544;42.196;24.336;2024-02-23T12:08:43;98854.66;;;16.81;43.17
26376;BME280;30544;42.196;24.336;2024-02-23T12:11:11;98847.03;;;16.87;42.72
26376;BME280;30544;42.196;24.336;2024-02-23T12:13:40;98842.50;;;16.91;43.18
26376;BME280;30544;42.196;24.336;2024-02-23T12:16:07;98831.16;;;17.01;42.66
26376;BME280;30544;42.196;24.336;2024-02-23T12:18:33;98827.16;;;17.07;42.69
26376;BME280;30544;42.196;24.336;2024-02-23T12:21:00;98822.31;;;17.13;42.93
26376;BME280;30544;42.196;24.336;2024-02-23T12:23:27;98819.47;;;17.18;42.39
26376;BME280;30544;42.196;24.336;2024-02-23T12:26:03;98819.69;;;17.22;42.95
26376;BME280;30544;42.196;24.336;2024-02-23T12:28:30;98828.84;;;17.27;42.80
26376;BME280;30544;42.196;24.336;2024-02-23T12:30:59;98821.81;;;17.30;42.62
26376;BME280;30544;42.196;24.336;2024-02-23T12:33:27;98819.31;;;17.28;42.56
26376;BME280;30544;42.196;24.336;2024-02-23T12:35:55;98816.22;;;17.30;42.18
26376;BME280;30544;42.196;24.336;2024-02-23T12:38:22;98817.28;;;17.34;42.42
26376;BME280;30544;42.196;24.336;2024-02-23T12:40:48;98825.09;;;17.37;43.18
26376;BME280;30544;42.196;24.336;2024-02-23T12:43:15;98818.44;;;17.33;42.28
26376;BME280;30544;42.196;24.336;2024-02-23T12:45:41;98819.50;;;17.37;42.67
26376;BME280;30544;42.196;24.336;2024-02-23T12:48:10;98811.69;;;17.53;42.33
26376;BME280;30544;42.196;24.336;2024-02-23T12:50:37;98807.97;;;17.57;42.23
26376;BME280;30544;42.196;24.336;2024-02-23T12:53:04;98802.28;;;17.62;41.96